sensor_id;sensor_type;location;lat;lon;timestamp;P1;durP1;ratioP1;P2;durP2;ratioP2
76599;SDS011;65489;52.048;6.090;2023-04-15T00:00:30;1.50;;;0.70;;
76599;SDS011;65489;52.048;6.090;2023-04-15T00:02:58;1.30;;;0.70;;
76599;SDS011;65489;52.048;6.090;2023-04-15T00:05:23;1.65;;;0.60;;
76599;SDS011;65489;52.048;6.090;2023-04-15T00:07:49;1.70;;;0.90;;
76599;SDS011;65489;52.048;6.090;2023-04-15T00:10:15;1.10;;;0.73;;
76599;SDS011;65489;52.048;6.090;2023-04-15T00:12:41;1.17;;;0.70;;
76599;SDS011;65489;52.048;6.090;2023-04-15T00:15:07;0.77;;;0.45;;
76599;SDS011;65489;52.048;6.090;2023-04-15T00:17:33;1.08;;;0.70;;
76599;SDS011;65489;52.048;6.090;2023-04-15T00:20:00;1.10;;;0.75;;
76599;SDS011;65489;52.048;6.090;2023-04-15T00:22:26;1.10;;;0.80;;
76599;SDS011;65489;52.048;6.090;2023-04-15T00:24:52;1.00;;;0.70;;
76599;SDS011;65489;52.048;6.090;2023-04-15T00:27:17;1.70;;;0.68;;
76599;SDS011;65489;52.048;6.090;2023-04-15T00:29:43;1.83;;;0.73;;
76599;SDS011;65489;52.048;6.090;2023-04-15T00:32:09;1.35;;;0.80;;
76599;SDS011;65489;52.048;6.090;2023-04-15T00:34:34;0.98;;;0.70;;
76599;SDS011;65489;52.048;6.090;2023-04-15T00:37:01;0.95;;;0.63;;
76599;SDS011;65489;52.048;6.090;2023-04-15T00:39:26;1.67;;;0.80;;
76599;SDS011;65489;52.048;6.090;2023-04-15T00:41:52;1.33;;;0.88;;
76599;SDS011;65489;52.048;6.090;2023-04-15T00:44:18;1.50;;;0.80;;
76599;SDS011;65489;52.048;6.090;2023-04-15T00:46:43;1.85;;;0.90;;
76599;SDS011;65489;52.048;6.090;2023-04-15T00:49:09;1.20;;;0.70;;
76599;SDS011;65489;52.048;6.090;2023-04-15T00:51:36;0.77;;;0.70;;
76599;SDS011;65489;52.048;6.090;2023-04-15T00:54:02;1.58;;;0.70;;
76599;SDS011;65489;52.048;6.090;2023-04-15T00:56:28;1.65;;;0.80;;
76599;SDS011;65489;52.048;6.090;2023-04-15T00:58:54;1.10;;;0.65;;
76599;SDS011;65489;52.048;6.090;2023-04-15T01:01:21;0.73;;;0.40;;
76599;SDS011;65489;52.048;6.090;2023-04-15T01:03:50;1.65;;;0.70;;
76599;SDS011;65489;52.048;6.090;2023-04-15T01:06:16;0.93;;;0.80;;
76599;SDS011;65489;52.048;6.090;2023-04-15T01:08:43;1.75;;;0.90;;
76599;SDS011;65489;52.048;6.090;2023-04-15T01:11:09;0.70;;;0.57;;
76599;SDS011;65489;52.048;6.090;2023-04-15T01:13:37;1.20;;;0.70;;
76599;SDS011;65489;52.048;6.090;2023-04-15T01:16:03;1.40;;;0.75;;
76599;SDS011;65489;52.048;6.090;2023-04-15T01:18:29;1.65;;;0.60;;
76599;SDS011;65489;52.048;6.090;2023-04-15T01:20:55;1.00;;;0.60;;
76599;SDS011;65489;52.048;6.090;2023-04-15T01:23:22;1.48;;;0.73;;
76599;SDS011;65489;52.048;6.090;2023-04-15T01:25:48;1.20;;;0.77;;
76599;SDS011;65489;52.048;6.090;2023-04-15T01:28:14;1.63;;;0.80;;
76599;SDS011;65489;52.048;6.090;2023-04-15T01:30:40;1.25;;;0.65;;
76599;SDS011;65489;52.048;6.090;2023-04-15T01:33:06;1.27;;;0.88;;
76599;SDS011;65489;52.048;6.090;2023-04-15T01:35:31;2.15;;;0.70;;
76599;SDS011;65489;52.048;6.090;2023-04-15T01:38:00;1.45;;;0.80;;
76599;SDS011;65489;52.048;6.090;2023-04-15T01:40:29;1.08;;;0.70;;
76599;SDS011;65489;52.048;6.090;2023-04-15T01:42:56;1.10;;;0.80;;
76599;SDS011;65489;52.048;6.090;2023-04-15T01:45:22;1.60;;;0.80;;
76599;SDS011;65489;52.048;6.090;2023-04-15T01:47:47;1.38;;;0.52;;
76599;SDS011;65489;52.048;6.090;2023-04-15T01:50:13;0.88;;;0.60;;
76599;SDS011;65489;52.048;6.090;2023-04-15T01:52:39;1.45;;;0.60;;
76599;SDS011;65489;52.048;6.090;2023-04-15T01:55:05;0.80;;;0.60;;
76599;SDS011;65489;52.048;6.090;2023-04-15T01:57:32;0.80;;;0.70;;
76599;SDS011;65489;52.048;6.090;2023-04-15T01:59:57;1.40;;;1.00;;
76599;SDS011;65489;52.048;6.090;2023-04-15T02:02:23;1.10;;;0.82;;
76599;SDS011;65489;52.048;6.090;2023-04-15T02:04:48;1.35;;;0.63;;
76599;SDS011;65489;52.048;6.090;2023-04-15T02:07:14;0.95;;;0.68;;
76599;SDS011;65489;52.048;6.090;2023-04-15T02:09:40;0.75;;;0.70;;
76599;SDS011;65489;52.048;6.090;2023-04-15T02:12:07;1.80;;;0.88;;
76599;SDS011;65489;52.048;6.090;2023-04-15T02:14:32;1.88;;;0.77;;
76599;SDS011;65489;52.048;6.090;2023-04-15T02:16:58;1.00;;;0.55;;
76599;SDS011;65489;52.048;6.090;2023-04-15T02:19:31;1.60;;;0.68;;
76599;SDS011;65489;52.048;6.090;2023-04-15T02:21:57;0.80;;;0.60;;
76599;SDS011;65489;52.048;6.090;2023-04-15T02:24:24;1.05;;;0.60;;
76599;SDS011;65489;52.048;6.090;2023-04-15T02:26:49;1.63;;;1.00;;
76599;SDS011;65489;52.048;6.090;2023-04-15T02:29:15;2.00;;;0.88;;
76599;SDS011;65489;52.048;6.090;2023-04-15T02:31:40;2.33;;;0.90;;
76599;SDS011;65489;52.048;6.090;2023-04-15T02:34:06;1.33;;;0.80;;
76599;SDS011;65489;52.048;6.090;2023-04-15T02:36:32;1.77;;;0.75;;
76599;SDS011;65489;52.048;6.090;2023-04-15T02:38:58;1.40;;;0.73;;
76599;SDS011;65489;52.048;6.090;2023-04-15T02:41:25;2.55;;;0.80;;
76599;SDS011;65489;52.048;6.090;2023-04-15T02:43:53;1.85;;;0.90;;
76599;SDS011;65489;52.048;6.090;2023-04-15T02:46:18;2.08;;;0.80;;
76599;SDS011;65489;52.048;6.090;2023-04-15T02:48:46;0.60;;;0.57;;
76599;SDS011;65489;52.048;6.090;2023-04-15T02:51:16;1.83;;;0.98;;
76599;SDS011;65489;52.048;6.090;2023-04-15T02:53:50;0.70;;;0.60;;
76599;SDS011;65489;52.048;6.090;2023-04-15T02:56:15;1.13;;;0.80;;
76599;SDS011;65489;52.048;6.090;2023-04-15T02:58:42;0.63;;;0.50;;
76599;SDS011;65489;52.048;6.090;2023-04-15T03:01:08;1.40;;;0.93;;
76599;SDS011;65489;52.048;6.090;2023-04-15T03:03:34;1.15;;;0.85;;
76599;SDS011;65489;52.048;6.090;2023-04-15T03:06:00;1.75;;;0.90;;
76599;SDS011;65489;52.048;6.090;2023-04-15T03:08:26;2.20;;;1.05;;
76599;SDS011;65489;52.048;6.090;2023-04-15T03:10:56;1.77;;;0.80;;
76599;SDS011;65489;52.048;6.090;2023-04-15T03:13:25;2.10;;;1.05;;
76599;SDS011;65489;52.048;6.090;2023-04-15T03:15:51;1.60;;;0.80;;
76599;SDS011;65489;52.048;6.090;2023-04-15T03:18:22;1.15;;;0.88;;
76599;SDS011;65489;52.048;6.090;2023-04-15T03:20:47;1.40;;;0.80;;
76599;SDS011;65489;52.048;6.090;2023-04-15T03:23:14;2.10;;;1.10;;
76599;SDS011;65489;52.048;6.090;2023-04-15T03:25:39;1.25;;;0.75;;
76599;SDS011;65489;52.048;6.090;2023-04-15T03:28:06;1.30;;;0.80;;
76599;SDS011;65489;52.048;6.090;2023-04-15T03:30:31;1.50;;;0.80;;
76599;SDS011;65489;52.048;6.090;2023-04-15T03:32:57;1.67;;;1.10;;
76599;SDS011;65489;52.048;6.090;2023-04-15T03:35:24;1.20;;;0.88;;
76599;SDS011;65489;52.048;6.090;2023-04-15T03:37:50;2.08;;;0.88;;
76599;SDS011;65489;52.048;6.090;2023-04-15T03:40:16;0.90;;;0.80;;
76599;SDS011;65489;52.048;6.090;2023-04-15T03:42:41;1.10;;;0.80;;
76599;SDS011;65489;52.048;6.090;2023-04-15T03:45:07;1.02;;;0.93;;
76599;SDS011;65489;52.048;6.090;2023-04-15T03:47:33;1.95;;;1.00;;
76599;SDS011;65489;52.048;6.090;2023-04-15T03:50:09;1.65;;;0.98;;
76599;SDS011;65489;52.048;6.090;2023-04-15T03:52:44;0.93;;;0.80;;
76599;SDS011;65489;52.048;6.090;2023-04-15T03:55:10;1.13;;;0.90;;
76599;SDS011;65489;52.048;6.090;2023-04-15T03:57:36;1.40;;;1.00;;
76599;SDS011;65489;52.048;6.090;2023-04-15T04:00:03;1.25;;;1.13;;
76599;SDS011;65489;52.048;6.090;2023-04-15T04:02:37;1.08;;;0.70;;
76599;SDS011;65489;52.048;6.090;2023-04-15T04:05:02;1.20;;;0.85;;
76599;SDS011;65489;52.048;6.090;2023-04-15T04:07:28;1.00;;;0.80;;
76599;SDS011;65489;52.048;6.090;2023-04-15T04:09:55;0.98;;;0.90;;
76599;SDS011;65489;52.048;6.090;2023-04-15T04:12:21;2.03;;;0.90;;
76599;SDS011;65489;52.048;6.090;2023-04-15T04:14:47;1.30;;;0.93;;
76599;SDS011;65489;52.048;6.090;2023-04-15T04:17:12;1.17;;;0.90;;
76599;SDS011;65489;52.048;6.090;2023-04-15T04:19:38;1.92;;;1.17;;
76599;SDS011;65489;52.048;6.090;2023-04-15T04:22:03;1.75;;;1.00;;
76599;SDS011;65489;52.048;6.090;2023-04-15T04:24:29;1.23;;;0.90;;
76599;SDS011;65489;52.048;6.090;2023-04-15T04:26:54;1.80;;;1.00;;
76599;SDS011;65489;52.048;6.090;2023-04-15T04:29:21;1.83;;;1.10;;
76599;SDS011;65489;52.048;6.090;2023-04-15T04:31:46;1.15;;;1.00;;
76599;SDS011;65489;52.048;6.090;2023-04-15T04:34:12;1.10;;;1.00;;
76599;SDS011;65489;52.048;6.090;2023-04-15T04:36:38;1.65;;;1.00;;
76599;SDS011;65489;52.048;6.090;2023-04-15T04:39:03;0.95;;;0.85;;
76599;SDS011;65489;52.048;6.090;2023-04-15T04:41:29;1.73;;;1.10;;
76599;SDS011;65489;52.048;6.090;2023-04-15T04:43:54;2.47;;;0.95;;
76599;SDS011;65489;52.048;6.090;2023-04-15T04:46:20;1.83;;;1.00;;
76599;SDS011;65489;52.048;6.090;2023-04-15T04:48:45;1.25;;;1.00;;
76599;SDS011;65489;52.048;6.090;2023-04-15T04:51:11;1.80;;;1.15;;
76599;SDS011;65489;52.048;6.090;2023-04-15T04:53:36;1.23;;;0.93;;
76599;SDS011;65489;52.048;6.090;2023-04-15T04:56:02;1.38;;;0.80;;
76599;SDS011;65489;52.048;6.090;2023-04-15T04:58:28;1.75;;;1.00;;
76599;SDS011;65489;52.048;6.090;2023-04-15T05:00:53;1.92;;;1.02;;
76599;SDS011;65489;52.048;6.090;2023-04-15T05:03:20;1.63;;;1.00;;
76599;SDS011;65489;52.048;6.090;2023-04-15T05:05:45;1.30;;;0.90;;
76599;SDS011;65489;52.048;6.090;2023-04-15T05:08:13;1.33;;;1.02;;
76599;SDS011;65489;52.048;6.090;2023-04-15T05:10:39;1.10;;;0.77;;
76599;SDS011;65489;52.048;6.090;2023-04-15T05:13:04;1.70;;;1.05;;
76599;SDS011;65489;52.048;6.090;2023-04-15T05:15:30;1.05;;;0.95;;
76599;SDS011;65489;52.048;6.090;2023-04-15T05:17:56;1.45;;;1.15;;
76599;SDS011;65489;52.048;6.090;2023-04-15T05:20:22;1.20;;;1.02;;
76599;SDS011;65489;52.048;6.090;2023-04-15T05:22:47;1.65;;;1.10;;
76599;SDS011;65489;52.048;6.090;2023-04-15T05:25:13;2.15;;;1.50;;
76599;SDS011;65489;52.048;6.090;2023-04-15T05:27:38;1.90;;;1.15;;
76599;SDS011;65489;52.048;6.090;2023-04-15T05:30:04;1.65;;;1.15;;
76599;SDS011;65489;52.048;6.090;2023-04-15T05:32:31;1.48;;;0.90;;
76599;SDS011;65489;52.048;6.090;2023-04-15T05:34:56;1.63;;;1.00;;
76599;SDS011;65489;52.048;6.090;2023-04-15T05:37:22;1.30;;;1.10;;
76599;SDS011;65489;52.048;6.090;2023-04-15T05:39:47;1.35;;;1.25;;
76599;SDS011;65489;52.048;6.090;2023-04-15T05:42:13;1.60;;;1.40;;
76599;SDS011;65489;52.048;6.090;2023-04-15T05:44:38;1.13;;;1.00;;
76599;SDS011;65489;52.048;6.090;2023-04-15T05:47:04;1.42;;;1.10;;
76599;SDS011;65489;52.048;6.090;2023-04-15T05:49:29;2.05;;;1.08;;
76599;SDS011;65489;52.048;6.090;2023-04-15T05:51:56;2.20;;;1.13;;
76599;SDS011;65489;52.048;6.090;2023-04-15T05:54:21;2.10;;;1.40;;
76599;SDS011;65489;52.048;6.090;2023-04-15T05:56:47;1.60;;;1.13;;
76599;SDS011;65489;52.048;6.090;2023-04-15T05:59:12;1.38;;;1.05;;
76599;SDS011;65489;52.048;6.090;2023-04-15T06:01:38;1.10;;;0.88;;
76599;SDS011;65489;52.048;6.090;2023-04-15T06:04:04;1.20;;;1.10;;
76599;SDS011;65489;52.048;6.090;2023-04-15T06:06:29;1.30;;;0.88;;
76599;SDS011;65489;52.048;6.090;2023-04-15T06:08:56;1.00;;;0.90;;
76599;SDS011;65489;52.048;6.090;2023-04-15T06:11:22;1.23;;;0.98;;
76599;SDS011;65489;52.048;6.090;2023-04-15T06:13:47;1.20;;;1.00;;
76599;SDS011;65489;52.048;6.090;2023-04-15T06:16:13;1.77;;;0.98;;
76599;SDS011;65489;52.048;6.090;2023-04-15T06:18:38;1.38;;;0.85;;
76599;SDS011;65489;52.048;6.090;2023-04-15T06:21:04;1.65;;;1.30;;
76599;SDS011;65489;52.048;6.090;2023-04-15T06:23:29;2.40;;;0.82;;
76599;SDS011;65489;52.048;6.090;2023-04-15T06:25:58;1.23;;;1.10;;
76599;SDS011;65489;52.048;6.090;2023-04-15T06:28:24;1.15;;;0.82;;
76599;SDS011;65489;52.048;6.090;2023-04-15T06:30:49;1.10;;;0.90;;
76599;SDS011;65489;52.048;6.090;2023-04-15T06:33:15;1.65;;;1.13;;
76599;SDS011;65489;52.048;6.090;2023-04-15T06:35:40;1.48;;;1.00;;
76599;SDS011;65489;52.048;6.090;2023-04-15T06:38:06;1.10;;;0.90;;
76599;SDS011;65489;52.048;6.090;2023-04-15T06:40:31;1.20;;;1.10;;
76599;SDS011;65489;52.048;6.090;2023-04-15T06:42:57;1.10;;;0.90;;
76599;SDS011;65489;52.048;6.090;2023-04-15T06:45:22;0.98;;;0.70;;
76599;SDS011;65489;52.048;6.090;2023-04-15T06:47:48;1.05;;;0.70;;
76599;SDS011;65489;52.048;6.090;2023-04-15T06:50:13;0.82;;;0.73;;
76599;SDS011;65489;52.048;6.090;2023-04-15T06:52:39;1.42;;;0.85;;
76599;SDS011;65489;52.048;6.090;2023-04-15T06:55:05;1.27;;;0.90;;
76599;SDS011;65489;52.048;6.090;2023-04-15T06:57:31;1.00;;;0.70;;
76599;SDS011;65489;52.048;6.090;2023-04-15T06:59:57;1.42;;;1.13;;
76599;SDS011;65489;52.048;6.090;2023-04-15T07:02:22;1.17;;;1.00;;
76599;SDS011;65489;52.048;6.090;2023-04-15T07:04:48;2.63;;;1.23;;
76599;SDS011;65489;52.048;6.090;2023-04-15T07:07:13;1.50;;;1.10;;
76599;SDS011;65489;52.048;6.090;2023-04-15T07:09:39;1.42;;;0.82;;
76599;SDS011;65489;52.048;6.090;2023-04-15T07:12:05;1.48;;;0.98;;
76599;SDS011;65489;52.048;6.090;2023-04-15T07:14:31;2.45;;;1.10;;
76599;SDS011;65489;52.048;6.090;2023-04-15T07:16:56;1.77;;;1.40;;
76599;SDS011;65489;52.048;6.090;2023-04-15T07:19:22;0.98;;;0.80;;
76599;SDS011;65489;52.048;6.090;2023-04-15T07:21:47;1.58;;;0.80;;
76599;SDS011;65489;52.048;6.090;2023-04-15T07:24:13;1.90;;;1.08;;
76599;SDS011;65489;52.048;6.090;2023-04-15T07:26:42;1.23;;;0.95;;
76599;SDS011;65489;52.048;6.090;2023-04-15T07:29:08;2.55;;;1.13;;
76599;SDS011;65489;52.048;6.090;2023-04-15T07:31:34;1.15;;;0.95;;
76599;SDS011;65489;52.048;6.090;2023-04-15T07:34:01;1.13;;;0.90;;
76599;SDS011;65489;52.048;6.090;2023-04-15T07:36:30;2.22;;;1.10;;
76599;SDS011;65489;52.048;6.090;2023-04-15T07:38:55;1.55;;;0.98;;
76599;SDS011;65489;52.048;6.090;2023-04-15T07:41:22;1.48;;;1.10;;
76599;SDS011;65489;52.048;6.090;2023-04-15T07:43:47;1.35;;;1.05;;
76599;SDS011;65489;52.048;6.090;2023-04-15T07:46:13;2.70;;;1.00;;
76599;SDS011;65489;52.048;6.090;2023-04-15T07:48:38;3.08;;;1.02;;
76599;SDS011;65489;52.048;6.090;2023-04-15T07:51:04;3.33;;;0.80;;
76599;SDS011;65489;52.048;6.090;2023-04-15T07:53:30;1.73;;;1.20;;
76599;SDS011;65489;52.048;6.090;2023-04-15T07:55:57;1.23;;;0.82;;
76599;SDS011;65489;52.048;6.090;2023-04-15T07:58:22;2.47;;;0.98;;
76599;SDS011;65489;52.048;6.090;2023-04-15T08:00:48;1.77;;;1.02;;
76599;SDS011;65489;52.048;6.090;2023-04-15T08:03:13;2.42;;;1.10;;
76599;SDS011;65489;52.048;6.090;2023-04-15T08:05:39;2.20;;;0.88;;
76599;SDS011;65489;52.048;6.090;2023-04-15T08:08:05;1.90;;;1.40;;
76599;SDS011;65489;52.048;6.090;2023-04-15T08:10:31;2.15;;;1.27;;
76599;SDS011;65489;52.048;6.090;2023-04-15T08:12:56;3.85;;;1.30;;
76599;SDS011;65489;52.048;6.090;2023-04-15T08:15:22;6.30;;;1.40;;
76599;SDS011;65489;52.048;6.090;2023-04-15T08:17:48;7.13;;;1.35;;
76599;SDS011;65489;52.048;6.090;2023-04-15T08:20:13;2.38;;;0.80;;
76599;SDS011;65489;52.048;6.090;2023-04-15T08:22:39;3.60;;;1.08;;
76599;SDS011;65489;52.048;6.090;2023-04-15T08:25:05;2.40;;;0.88;;
76599;SDS011;65489;52.048;6.090;2023-04-15T08:27:30;4.07;;;1.02;;
76599;SDS011;65489;52.048;6.090;2023-04-15T08:29:56;2.47;;;0.98;;
76599;SDS011;65489;52.048;6.090;2023-04-15T08:32:21;4.75;;;1.30;;
76599;SDS011;65489;52.048;6.090;2023-04-15T08:34:47;2.72;;;1.17;;
76599;SDS011;65489;52.048;6.090;2023-04-15T08:37:12;4.20;;;1.30;;
76599;SDS011;65489;52.048;6.090;2023-04-15T08:39:38;1.80;;;0.90;;
76599;SDS011;65489;52.048;6.090;2023-04-15T08:42:03;4.05;;;0.93;;
76599;SDS011;65489;52.048;6.090;2023-04-15T08:44:36;7.40;;;1.60;;
76599;SDS011;65489;52.048;6.090;2023-04-15T08:47:03;4.13;;;1.50;;
76599;SDS011;65489;52.048;6.090;2023-04-15T08:51:57;5.47;;;1.50;;
76599;SDS011;65489;52.048;6.090;2023-04-15T08:54:23;5.47;;;1.50;;
76599;SDS011;65489;52.048;6.090;2023-04-15T08:56:49;6.10;;;1.77;;
76599;SDS011;65489;52.048;6.090;2023-04-15T08:59:14;6.60;;;2.25;;
76599;SDS011;65489;52.048;6.090;2023-04-15T09:01:43;8.67;;;2.63;;
76599;SDS011;65489;52.048;6.090;2023-04-15T09:04:08;14.30;;;2.75;;
76599;SDS011;65489;52.048;6.090;2023-04-15T09:06:36;8.75;;;2.65;;
76599;SDS011;65489;52.048;6.090;2023-04-15T09:09:03;15.52;;;3.50;;
76599;SDS011;65489;52.048;6.090;2023-04-15T09:11:29;10.95;;;2.75;;
76599;SDS011;65489;52.048;6.090;2023-04-15T09:13:55;8.70;;;2.65;;
76599;SDS011;65489;52.048;6.090;2023-04-15T09:16:20;11.88;;;2.95;;
76599;SDS011;65489;52.048;6.090;2023-04-15T09:18:46;14.00;;;3.83;;
76599;SDS011;65489;52.048;6.090;2023-04-15T09:21:13;10.77;;;2.70;;
76599;SDS011;65489;52.048;6.090;2023-04-15T09:23:40;11.77;;;2.78;;
76599;SDS011;65489;52.048;6.090;2023-04-15T09:26:06;9.60;;;2.70;;
76599;SDS011;65489;52.048;6.090;2023-04-15T09:28:32;8.52;;;2.42;;
76599;SDS011;65489;52.048;6.090;2023-04-15T09:31:00;7.65;;;2.50;;
76599;SDS011;65489;52.048;6.090;2023-04-15T09:33:27;10.57;;;2.78;;
76599;SDS011;65489;52.048;6.090;2023-04-15T09:36:00;10.10;;;2.38;;
76599;SDS011;65489;52.048;6.090;2023-04-15T09:38:27;8.48;;;2.72;;
76599;SDS011;65489;52.048;6.090;2023-04-15T09:40:53;10.20;;;2.65;;
76599;SDS011;65489;52.048;6.090;2023-04-15T09:43:18;10.10;;;2.65;;
76599;SDS011;65489;52.048;6.090;2023-04-15T09:45:48;9.88;;;2.95;;
76599;SDS011;65489;52.048;6.090;2023-04-15T09:48:19;8.57;;;2.20;;
76599;SDS011;65489;52.048;6.090;2023-04-15T09:50:47;7.90;;;2.55;;
76599;SDS011;65489;52.048;6.090;2023-04-15T09:53:17;8.38;;;2.63;;
76599;SDS011;65489;52.048;6.090;2023-04-15T09:58:21;7.63;;;2.40;;
76599;SDS011;65489;52.048;6.090;2023-04-15T10:00:47;7.07;;;2.60;;
76599;SDS011;65489;52.048;6.090;2023-04-15T10:03:18;9.02;;;2.55;;
76599;SDS011;65489;52.048;6.090;2023-04-15T10:05:50;9.38;;;2.53;;
76599;SDS011;65489;52.048;6.090;2023-04-15T10:08:17;10.00;;;2.42;;
76599;SDS011;65489;52.048;6.090;2023-04-15T10:10:45;4.75;;;2.13;;
76599;SDS011;65489;52.048;6.090;2023-04-15T10:13:16;7.45;;;2.53;;
76599;SDS011;65489;52.048;6.090;2023-04-15T10:15:44;8.32;;;2.15;;
76599;SDS011;65489;52.048;6.090;2023-04-15T10:18:15;6.70;;;2.30;;
76599;SDS011;65489;52.048;6.090;2023-04-15T10:20:42;5.20;;;2.30;;
76599;SDS011;65489;52.048;6.090;2023-04-15T10:23:08;8.90;;;3.08;;
76599;SDS011;65489;52.048;6.090;2023-04-15T10:25:33;6.68;;;2.38;;
76599;SDS011;65489;52.048;6.090;2023-04-15T10:27:59;3.83;;;1.80;;
76599;SDS011;65489;52.048;6.090;2023-04-15T10:30:25;4.82;;;1.77;;
76599;SDS011;65489;52.048;6.090;2023-04-15T10:32:50;4.18;;;1.55;;
76599;SDS011;65489;52.048;6.090;2023-04-15T10:35:16;8.35;;;2.47;;
76599;SDS011;65489;52.048;6.090;2023-04-15T10:37:42;5.43;;;1.83;;
76599;SDS011;65489;52.048;6.090;2023-04-15T10:40:24;6.63;;;2.20;;
76599;SDS011;65489;52.048;6.090;2023-04-15T10:42:57;5.07;;;1.80;;
76599;SDS011;65489;52.048;6.090;2023-04-15T10:45:24;3.28;;;1.67;;
76599;SDS011;65489;52.048;6.090;2023-04-15T10:47:53;7.13;;;1.92;;
76599;SDS011;65489;52.048;6.090;2023-04-15T10:50:19;5.77;;;2.03;;
76599;SDS011;65489;52.048;6.090;2023-04-15T10:52:49;5.80;;;1.70;;
76599;SDS011;65489;52.048;6.090;2023-04-15T10:55:20;5.28;;;1.77;;
76599;SDS011;65489;52.048;6.090;2023-04-15T10:57:50;5.30;;;1.65;;
76599;SDS011;65489;52.048;6.090;2023-04-15T11:00:20;6.07;;;1.70;;
76599;SDS011;65489;52.048;6.090;2023-04-15T11:08:06;6.90;;;1.70;;
76599;SDS011;65489;52.048;6.090;2023-04-15T11:12:59;4.97;;;1.90;;
76599;SDS011;65489;52.048;6.090;2023-04-15T11:15:33;5.63;;;1.60;;
76599;SDS011;65489;52.048;6.090;2023-04-15T11:18:10;7.10;;;1.90;;
76599;SDS011;65489;52.048;6.090;2023-04-15T11:23:19;5.30;;;1.70;;
76599;SDS011;65489;52.048;6.090;2023-04-15T11:25:53;4.13;;;1.60;;
76599;SDS011;65489;52.048;6.090;2023-04-15T11:28:19;6.03;;;1.77;;
76599;SDS011;65489;52.048;6.090;2023-04-15T11:30:44;3.58;;;1.50;;
76599;SDS011;65489;52.048;6.090;2023-04-15T11:33:10;3.97;;;1.38;;
76599;SDS011;65489;52.048;6.090;2023-04-15T11:35:36;4.10;;;1.52;;
76599;SDS011;65489;52.048;6.090;2023-04-15T11:38:09;4.57;;;1.50;;
76599;SDS011;65489;52.048;6.090;2023-04-15T11:40:38;3.45;;;1.30;;
76599;SDS011;65489;52.048;6.090;2023-04-15T11:43:14;3.00;;;1.23;;
76599;SDS011;65489;52.048;6.090;2023-04-15T11:45:55;3.97;;;1.27;;
76599;SDS011;65489;52.048;6.090;2023-04-15T11:48:22;3.03;;;1.27;;
76599;SDS011;65489;52.048;6.090;2023-04-15T11:51:00;2.92;;;1.40;;
76599;SDS011;65489;52.048;6.090;2023-04-15T11:56:08;3.35;;;1.20;;
76599;SDS011;65489;52.048;6.090;2023-04-15T11:58:35;2.20;;;1.08;;
76599;SDS011;65489;52.048;6.090;2023-04-15T12:01:02;4.03;;;1.30;;
76599;SDS011;65489;52.048;6.090;2023-04-15T12:16:47;2.33;;;1.20;;
76599;SDS011;65489;52.048;6.090;2023-04-15T12:19:15;2.70;;;1.08;;
76599;SDS011;65489;52.048;6.090;2023-04-15T12:21:48;2.58;;;0.98;;
76599;SDS011;65489;52.048;6.090;2023-04-15T12:24:14;2.13;;;1.00;;
76599;SDS011;65489;52.048;6.090;2023-04-15T12:26:55;2.90;;;0.93;;
76599;SDS011;65489;52.048;6.090;2023-04-15T12:29:26;2.35;;;0.90;;
76599;SDS011;65489;52.048;6.090;2023-04-15T12:31:53;1.38;;;0.88;;
76599;SDS011;65489;52.048;6.090;2023-04-15T12:36:52;3.47;;;0.85;;
76599;SDS011;65489;52.048;6.090;2023-04-15T12:39:20;1.92;;;0.82;;
76599;SDS011;65489;52.048;6.090;2023-04-15T12:41:46;2.35;;;0.90;;
76599;SDS011;65489;52.048;6.090;2023-04-15T12:44:12;2.10;;;0.90;;
76599;SDS011;65489;52.048;6.090;2023-04-15T12:46:37;2.00;;;0.80;;
76599;SDS011;65489;52.048;6.090;2023-04-15T12:49:03;3.53;;;1.00;;
76599;SDS011;65489;52.048;6.090;2023-04-15T12:51:28;2.72;;;1.00;;
76599;SDS011;65489;52.048;6.090;2023-04-15T12:53:55;2.25;;;1.00;;
76599;SDS011;65489;52.048;6.090;2023-04-15T12:56:21;2.55;;;1.00;;
76599;SDS011;65489;52.048;6.090;2023-04-15T12:58:48;1.95;;;1.00;;
76599;SDS011;65489;52.048;6.090;2023-04-15T13:01:13;2.67;;;1.10;;
76599;SDS011;65489;52.048;6.090;2023-04-15T13:03:38;1.30;;;0.80;;
76599;SDS011;65489;52.048;6.090;2023-04-15T13:06:04;2.00;;;0.77;;
76599;SDS011;65489;52.048;6.090;2023-04-15T13:08:30;2.25;;;0.90;;
76599;SDS011;65489;52.048;6.090;2023-04-15T13:10:56;2.53;;;1.05;;
76599;SDS011;65489;52.048;6.090;2023-04-15T13:13:21;1.00;;;0.52;;
76599;SDS011;65489;52.048;6.090;2023-04-15T13:15:46;2.42;;;0.80;;
76599;SDS011;65489;52.048;6.090;2023-04-15T13:18:12;2.80;;;0.88;;
76599;SDS011;65489;52.048;6.090;2023-04-15T13:20:38;2.55;;;0.80;;
76599;SDS011;65489;52.048;6.090;2023-04-15T13:23:03;1.92;;;0.70;;
76599;SDS011;65489;52.048;6.090;2023-04-15T13:25:28;1.23;;;0.60;;
76599;SDS011;65489;52.048;6.090;2023-04-15T13:27:54;2.30;;;0.90;;
76599;SDS011;65489;52.048;6.090;2023-04-15T13:30:19;2.58;;;0.70;;
76599;SDS011;65489;52.048;6.090;2023-04-15T13:32:45;1.70;;;0.77;;
76599;SDS011;65489;52.048;6.090;2023-04-15T13:35:10;1.88;;;0.88;;
76599;SDS011;65489;52.048;6.090;2023-04-15T13:37:36;1.05;;;0.60;;
76599;SDS011;65489;52.048;6.090;2023-04-15T13:40:01;1.60;;;0.80;;
76599;SDS011;65489;52.048;6.090;2023-04-15T13:42:27;1.80;;;0.60;;
76599;SDS011;65489;52.048;6.090;2023-04-15T13:44:53;3.72;;;1.33;;
76599;SDS011;65489;52.048;6.090;2023-04-15T13:47:18;1.73;;;0.90;;
76599;SDS011;65489;52.048;6.090;2023-04-15T13:49:44;1.70;;;0.70;;
76599;SDS011;65489;52.048;6.090;2023-04-15T13:52:10;1.63;;;0.80;;
76599;SDS011;65489;52.048;6.090;2023-04-15T13:54:36;1.95;;;1.10;;
76599;SDS011;65489;52.048;6.090;2023-04-15T13:57:01;0.80;;;0.40;;
76599;SDS011;65489;52.048;6.090;2023-04-15T13:59:27;0.80;;;0.57;;
76599;SDS011;65489;52.048;6.090;2023-04-15T14:01:52;1.27;;;0.60;;
76599;SDS011;65489;52.048;6.090;2023-04-15T14:04:17;2.13;;;0.70;;
76599;SDS011;65489;52.048;6.090;2023-04-15T14:06:43;1.38;;;0.77;;
76599;SDS011;65489;52.048;6.090;2023-04-15T14:09:09;1.67;;;0.93;;
76599;SDS011;65489;52.048;6.090;2023-04-15T14:11:36;1.25;;;0.65;;
76599;SDS011;65489;52.048;6.090;2023-04-15T14:14:02;1.50;;;0.70;;
76599;SDS011;65489;52.048;6.090;2023-04-15T14:16:28;1.67;;;0.70;;
76599;SDS011;65489;52.048;6.090;2023-04-15T14:18:53;1.35;;;0.60;;
76599;SDS011;65489;52.048;6.090;2023-04-15T14:21:19;1.90;;;0.88;;
76599;SDS011;65489;52.048;6.090;2023-04-15T14:23:45;0.80;;;0.50;;
76599;SDS011;65489;52.048;6.090;2023-04-15T14:26:10;0.98;;;0.60;;
76599;SDS011;65489;52.048;6.090;2023-04-15T14:28:36;1.75;;;0.80;;
76599;SDS011;65489;52.048;6.090;2023-04-15T14:31:03;4.80;;;0.80;;
76599;SDS011;65489;52.048;6.090;2023-04-15T14:33:28;1.10;;;0.70;;
76599;SDS011;65489;52.048;6.090;2023-04-15T14:35:54;1.45;;;0.70;;
76599;SDS011;65489;52.048;6.090;2023-04-15T14:38:20;1.45;;;0.60;;
76599;SDS011;65489;52.048;6.090;2023-04-15T14:40:46;1.83;;;0.70;;
76599;SDS011;65489;52.048;6.090;2023-04-15T14:43:12;1.42;;;0.70;;
76599;SDS011;65489;52.048;6.090;2023-04-15T14:45:37;1.98;;;0.60;;
76599;SDS011;65489;52.048;6.090;2023-04-15T14:48:03;1.23;;;0.55;;
76599;SDS011;65489;52.048;6.090;2023-04-15T14:50:30;2.35;;;0.70;;
76599;SDS011;65489;52.048;6.090;2023-04-15T14:52:56;1.70;;;0.90;;
76599;SDS011;65489;52.048;6.090;2023-04-15T14:55:22;1.20;;;0.55;;
76599;SDS011;65489;52.048;6.090;2023-04-15T14:57:47;2.40;;;0.65;;
76599;SDS011;65489;52.048;6.090;2023-04-15T15:00:13;1.00;;;0.70;;
76599;SDS011;65489;52.048;6.090;2023-04-15T15:02:38;1.35;;;0.65;;
76599;SDS011;65489;52.048;6.090;2023-04-15T15:05:04;0.80;;;0.55;;
76599;SDS011;65489;52.048;6.090;2023-04-15T15:07:29;1.00;;;0.55;;
76599;SDS011;65489;52.048;6.090;2023-04-15T15:09:55;1.40;;;0.70;;
76599;SDS011;65489;52.048;6.090;2023-04-15T15:12:20;1.55;;;0.70;;
76599;SDS011;65489;52.048;6.090;2023-04-15T15:14:47;2.20;;;0.60;;
76599;SDS011;65489;52.048;6.090;2023-04-15T15:17:13;0.95;;;0.55;;